デリー の空港の天気 - METARとTAF

インディラ・ガンディー国際空港 ( VIDP / DEL ) - インド デリー
飛行場実況気象(Metar)
観測時間07/29 08:30 IST (07/29 03:00 UTC)
風向・風速西 3m/s
視程3000m
天気現象もや
全天の4割程度の雲 雲底高度 910m
全天の8割程度の雲 雲底高度 3050m
気温28℃
湿度94%
気圧999hPa
METARVIDP 290300Z 26006KT 3000 BR SCT030 BKN100 28/27 Q0999 NOSIG
過去の天気等 Google飛行場航空写真 Wunderground天気予報

過去48時間のMETAR

飛行場予報(TAF)
発表時間: 7/29 04:30 IST (7/28 23:00 UTC)
予報対象時間: 29日5時 IST ~ 30日11時 IST
風向・風速南西 2m/s
視程1800m
天気現象もや 弱い雨
全天の4割程度の雲 雲底高度 910m
全天の8割程度の雲 雲底高度 2740m
29日9時 IST ~ 29日11時 IST に徐々に
風向・風速南南東 3m/s
視程3000m
天気現象もや 霧雨
29日12時 IST ~ 29日18時 IST に一時的に
風向・風速南南西 4m/s 瞬間風速 9m/s
視程1500m
天気現象雷雨
全天の4割程度の雲 雲底高度 760m
少しの積乱雲 雲底高度 1070m
全天を覆う雲 雲底高度 2440m
29日22時 IST ~ 30日24時 IST に徐々に
風向・風速不定 1m/s
視程2000m
天気現象もや 弱い雨
全天の4割程度の雲 雲底高度 910m
全天の8割程度の雲 雲底高度 2740m
30日2時 IST ~ 30日8時 IST に一時的に
風向・風速東南東 5m/s
視程1200m
天気現象雷雨
全天の4割程度の雲 雲底高度 760m
少しの積乱雲 雲底高度 1070m
全天を覆う雲 雲底高度 2440m
TAF VIDP 282300Z 2900/3006 23004KT 1800 BR -RA SCT030 BKN090
BECMG 2904/2906 15006KT 3000 BR DZ
TEMPO 2907/2913 21008G18KT 1500 TSRA SCT025 FEW035CB OVC080
BECMG 2917/2919 VRB02KT 2000 BR -RA SCT030 BKN090
TEMPO 2921/3003 11010KT 1200 TSRA SCT025 FEW035CB OVC080